sensor_id;sensor_type;location;lat;lon;timestamp;P1;durP1;ratioP1;P2;durP2;ratioP2
75261;SDS011;63859;51.064;4.580;2023-04-04T00:01:18;7.00;;;2.50;;
75261;SDS011;63859;51.064;4.580;2023-04-04T00:03:43;5.77;;;2.50;;
75261;SDS011;63859;51.064;4.580;2023-04-04T00:06:09;6.07;;;2.87;;
75261;SDS011;63859;51.064;4.580;2023-04-04T00:08:35;7.10;;;2.43;;
75261;SDS011;63859;51.064;4.580;2023-04-04T00:11:01;4.53;;;2.60;;
75261;SDS011;63859;51.064;4.580;2023-04-04T00:13:27;6.90;;;2.90;;
75261;SDS011;63859;51.064;4.580;2023-04-04T00:15:53;3.93;;;2.60;;
75261;SDS011;63859;51.064;4.580;2023-04-04T00:18:19;4.67;;;2.70;;
75261;SDS011;63859;51.064;4.580;2023-04-04T00:20:45;5.67;;;2.60;;
75261;SDS011;63859;51.064;4.580;2023-04-04T00:23:10;4.63;;;2.53;;
75261;SDS011;63859;51.064;4.580;2023-04-04T00:25:36;9.17;;;3.07;;
75261;SDS011;63859;51.064;4.580;2023-04-04T00:28:02;6.67;;;2.77;;
75261;SDS011;63859;51.064;4.580;2023-04-04T00:30:28;6.30;;;2.90;;
75261;SDS011;63859;51.064;4.580;2023-04-04T00:32:54;4.07;;;2.37;;
75261;SDS011;63859;51.064;4.580;2023-04-04T00:35:21;6.10;;;2.50;;
75261;SDS011;63859;51.064;4.580;2023-04-04T00:37:46;5.33;;;2.70;;
75261;SDS011;63859;51.064;4.580;2023-04-04T00:40:12;6.03;;;2.50;;
75261;SDS011;63859;51.064;4.580;2023-04-04T00:42:38;5.23;;;2.40;;
75261;SDS011;63859;51.064;4.580;2023-04-04T00:45:07;4.97;;;2.80;;
75261;SDS011;63859;51.064;4.580;2023-04-04T00:47:32;4.83;;;2.53;;
75261;SDS011;63859;51.064;4.580;2023-04-04T00:49:58;7.13;;;2.70;;
75261;SDS011;63859;51.064;4.580;2023-04-04T00:52:24;4.77;;;2.57;;
75261;SDS011;63859;51.064;4.580;2023-04-04T00:54:51;4.83;;;2.47;;
75261;SDS011;63859;51.064;4.580;2023-04-04T00:57:18;5.20;;;2.77;;
75261;SDS011;63859;51.064;4.580;2023-04-04T00:59:44;5.67;;;2.93;;
75261;SDS011;63859;51.064;4.580;2023-04-04T01:02:10;4.70;;;2.70;;
75261;SDS011;63859;51.064;4.580;2023-04-04T01:04:35;6.50;;;2.67;;
75261;SDS011;63859;51.064;4.580;2023-04-04T01:07:01;6.37;;;2.80;;
75261;SDS011;63859;51.064;4.580;2023-04-04T01:09:28;6.33;;;3.17;;
75261;SDS011;63859;51.064;4.580;2023-04-04T01:11:54;5.37;;;2.73;;
75261;SDS011;63859;51.064;4.580;2023-04-04T01:14:20;7.53;;;2.60;;
75261;SDS011;63859;51.064;4.580;2023-04-04T01:16:47;8.53;;;2.80;;
75261;SDS011;63859;51.064;4.580;2023-04-04T01:19:16;4.70;;;2.70;;
75261;SDS011;63859;51.064;4.580;2023-04-04T01:21:48;4.70;;;2.60;;
75261;SDS011;63859;51.064;4.580;2023-04-04T01:24:16;6.73;;;2.63;;
75261;SDS011;63859;51.064;4.580;2023-04-04T01:26:43;6.77;;;3.17;;
75261;SDS011;63859;51.064;4.580;2023-04-04T01:29:10;7.23;;;2.97;;
75261;SDS011;63859;51.064;4.580;2023-04-04T01:31:38;5.53;;;3.00;;
75261;SDS011;63859;51.064;4.580;2023-04-04T01:37:06;8.00;;;2.80;;
75261;SDS011;63859;51.064;4.580;2023-04-04T01:40:00;5.20;;;2.73;;
75261;SDS011;63859;51.064;4.580;2023-04-04T01:42:32;4.77;;;2.73;;
75261;SDS011;63859;51.064;4.580;2023-04-04T01:44:58;7.57;;;3.03;;
75261;SDS011;63859;51.064;4.580;2023-04-04T01:47:24;6.13;;;2.40;;
75261;SDS011;63859;51.064;4.580;2023-04-04T01:49:50;6.77;;;2.50;;
75261;SDS011;63859;51.064;4.580;2023-04-04T01:52:17;7.43;;;2.87;;
75261;SDS011;63859;51.064;4.580;2023-04-04T01:54:43;4.80;;;2.77;;
75261;SDS011;63859;51.064;4.580;2023-04-04T01:57:09;6.03;;;2.73;;
75261;SDS011;63859;51.064;4.580;2023-04-04T01:59:34;7.03;;;3.23;;
75261;SDS011;63859;51.064;4.580;2023-04-04T02:02:00;4.80;;;2.60;;
75261;SDS011;63859;51.064;4.580;2023-04-04T02:04:25;9.07;;;2.93;;
75261;SDS011;63859;51.064;4.580;2023-04-04T02:06:51;8.70;;;2.80;;
75261;SDS011;63859;51.064;4.580;2023-04-04T02:09:17;6.07;;;2.63;;
75261;SDS011;63859;51.064;4.580;2023-04-04T02:11:42;6.57;;;2.83;;
75261;SDS011;63859;51.064;4.580;2023-04-04T02:14:08;5.73;;;2.87;;
75261;SDS011;63859;51.064;4.580;2023-04-04T02:16:34;10.57;;;3.27;;
75261;SDS011;63859;51.064;4.580;2023-04-04T02:18:59;6.73;;;2.90;;
75261;SDS011;63859;51.064;4.580;2023-04-04T02:21:25;5.73;;;2.50;;
75261;SDS011;63859;51.064;4.580;2023-04-04T02:23:51;7.37;;;3.20;;
75261;SDS011;63859;51.064;4.580;2023-04-04T02:26:17;7.47;;;2.97;;
75261;SDS011;63859;51.064;4.580;2023-04-04T02:28:42;8.70;;;3.13;;
75261;SDS011;63859;51.064;4.580;2023-04-04T02:31:09;10.00;;;3.00;;
75261;SDS011;63859;51.064;4.580;2023-04-04T02:33:34;5.27;;;2.83;;
75261;SDS011;63859;51.064;4.580;2023-04-04T02:36:01;5.43;;;3.10;;
75261;SDS011;63859;51.064;4.580;2023-04-04T02:38:27;7.33;;;2.60;;
75261;SDS011;63859;51.064;4.580;2023-04-04T02:40:52;6.33;;;3.20;;
75261;SDS011;63859;51.064;4.580;2023-04-04T02:43:18;5.57;;;3.07;;
75261;SDS011;63859;51.064;4.580;2023-04-04T02:45:43;5.27;;;3.17;;
75261;SDS011;63859;51.064;4.580;2023-04-04T02:48:11;5.07;;;2.97;;
75261;SDS011;63859;51.064;4.580;2023-04-04T02:50:37;5.57;;;2.97;;
75261;SDS011;63859;51.064;4.580;2023-04-04T02:53:02;7.20;;;3.23;;
75261;SDS011;63859;51.064;4.580;2023-04-04T02:55:28;5.33;;;3.40;;
75261;SDS011;63859;51.064;4.580;2023-04-04T02:57:54;7.80;;;3.30;;
75261;SDS011;63859;51.064;4.580;2023-04-04T03:00:20;7.27;;;3.20;;
75261;SDS011;63859;51.064;4.580;2023-04-04T03:02:51;8.47;;;3.30;;
75261;SDS011;63859;51.064;4.580;2023-04-04T03:05:22;5.87;;;3.73;;
75261;SDS011;63859;51.064;4.580;2023-04-04T03:07:55;7.47;;;3.10;;
75261;SDS011;63859;51.064;4.580;2023-04-04T03:10:22;6.33;;;2.90;;
75261;SDS011;63859;51.064;4.580;2023-04-04T03:12:53;7.00;;;2.90;;
75261;SDS011;63859;51.064;4.580;2023-04-04T03:15:19;8.10;;;3.83;;
75261;SDS011;63859;51.064;4.580;2023-04-04T03:17:45;9.57;;;3.70;;
75261;SDS011;63859;51.064;4.580;2023-04-04T03:20:11;8.43;;;3.13;;
75261;SDS011;63859;51.064;4.580;2023-04-04T03:22:37;4.53;;;2.90;;
75261;SDS011;63859;51.064;4.580;2023-04-04T03:25:03;6.20;;;3.40;;
75261;SDS011;63859;51.064;4.580;2023-04-04T03:27:32;8.00;;;3.33;;
75261;SDS011;63859;51.064;4.580;2023-04-04T03:29:58;6.30;;;3.13;;
75261;SDS011;63859;51.064;4.580;2023-04-04T03:32:24;6.33;;;3.10;;
75261;SDS011;63859;51.064;4.580;2023-04-04T03:34:50;10.20;;;3.43;;
75261;SDS011;63859;51.064;4.580;2023-04-04T03:37:18;7.93;;;3.27;;
75261;SDS011;63859;51.064;4.580;2023-04-04T03:39:44;5.93;;;3.20;;
75261;SDS011;63859;51.064;4.580;2023-04-04T03:42:10;4.53;;;3.37;;
75261;SDS011;63859;51.064;4.580;2023-04-04T03:44:42;9.07;;;3.10;;
75261;SDS011;63859;51.064;4.580;2023-04-04T03:47:07;9.73;;;4.10;;
75261;SDS011;63859;51.064;4.580;2023-04-04T03:49:33;9.93;;;3.43;;
75261;SDS011;63859;51.064;4.580;2023-04-04T03:51:59;6.53;;;3.30;;
75261;SDS011;63859;51.064;4.580;2023-04-04T03:54:26;8.93;;;3.17;;
75261;SDS011;63859;51.064;4.580;2023-04-04T03:56:53;10.83;;;3.53;;
75261;SDS011;63859;51.064;4.580;2023-04-04T03:59:19;5.37;;;3.13;;
75261;SDS011;63859;51.064;4.580;2023-04-04T04:01:45;7.20;;;3.23;;
75261;SDS011;63859;51.064;4.580;2023-04-04T04:04:11;5.10;;;3.30;;
75261;SDS011;63859;51.064;4.580;2023-04-04T04:06:37;9.57;;;3.70;;
75261;SDS011;63859;51.064;4.580;2023-04-04T04:09:02;7.33;;;3.27;;
75261;SDS011;63859;51.064;4.580;2023-04-04T04:11:28;9.33;;;3.60;;
75261;SDS011;63859;51.064;4.580;2023-04-04T04:13:53;9.67;;;3.30;;
75261;SDS011;63859;51.064;4.580;2023-04-04T04:16:20;6.83;;;3.70;;
75261;SDS011;63859;51.064;4.580;2023-04-04T04:18:48;8.03;;;3.40;;
75261;SDS011;63859;51.064;4.580;2023-04-04T04:21:13;8.77;;;4.13;;
75261;SDS011;63859;51.064;4.580;2023-04-04T04:23:39;8.30;;;3.77;;
75261;SDS011;63859;51.064;4.580;2023-04-04T04:26:05;6.37;;;3.40;;
75261;SDS011;63859;51.064;4.580;2023-04-04T04:28:31;13.23;;;3.90;;
75261;SDS011;63859;51.064;4.580;2023-04-04T04:31:06;7.20;;;3.70;;
75261;SDS011;63859;51.064;4.580;2023-04-04T04:33:33;10.17;;;5.50;;
75261;SDS011;63859;51.064;4.580;2023-04-04T04:36:00;7.27;;;3.70;;
75261;SDS011;63859;51.064;4.580;2023-04-04T04:38:26;10.43;;;3.77;;
75261;SDS011;63859;51.064;4.580;2023-04-04T04:40:53;31.10;;;5.93;;
75261;SDS011;63859;51.064;4.580;2023-04-04T04:43:18;11.67;;;3.83;;
75261;SDS011;63859;51.064;4.580;2023-04-04T04:45:44;8.27;;;3.97;;
75261;SDS011;63859;51.064;4.580;2023-04-04T04:48:10;8.80;;;4.03;;
75261;SDS011;63859;51.064;4.580;2023-04-04T04:50:37;9.90;;;3.83;;
75261;SDS011;63859;51.064;4.580;2023-04-04T04:53:02;13.07;;;4.10;;
75261;SDS011;63859;51.064;4.580;2023-04-04T04:55:28;8.67;;;3.53;;
75261;SDS011;63859;51.064;4.580;2023-04-04T04:57:53;9.23;;;4.20;;
75261;SDS011;63859;51.064;4.580;2023-04-04T05:00:19;5.60;;;4.00;;
75261;SDS011;63859;51.064;4.580;2023-04-04T05:02:45;8.73;;;4.33;;
75261;SDS011;63859;51.064;4.580;2023-04-04T05:05:10;8.03;;;3.70;;
75261;SDS011;63859;51.064;4.580;2023-04-04T05:07:36;7.90;;;4.07;;
75261;SDS011;63859;51.064;4.580;2023-04-04T05:10:02;9.90;;;4.10;;
75261;SDS011;63859;51.064;4.580;2023-04-04T05:12:27;9.27;;;3.70;;
75261;SDS011;63859;51.064;4.580;2023-04-04T05:14:53;8.43;;;4.00;;
75261;SDS011;63859;51.064;4.580;2023-04-04T05:17:19;11.03;;;4.73;;
75261;SDS011;63859;51.064;4.580;2023-04-04T05:19:46;6.33;;;4.07;;
75261;SDS011;63859;51.064;4.580;2023-04-04T05:22:12;12.90;;;4.43;;
75261;SDS011;63859;51.064;4.580;2023-04-04T05:24:38;5.97;;;4.30;;
75261;SDS011;63859;51.064;4.580;2023-04-04T05:27:03;9.27;;;4.20;;
75261;SDS011;63859;51.064;4.580;2023-04-04T05:29:29;8.23;;;4.10;;
75261;SDS011;63859;51.064;4.580;2023-04-04T05:31:55;10.53;;;4.63;;
75261;SDS011;63859;51.064;4.580;2023-04-04T05:34:21;17.87;;;5.53;;
75261;SDS011;63859;51.064;4.580;2023-04-04T05:36:46;11.00;;;5.30;;
75261;SDS011;63859;51.064;4.580;2023-04-04T05:39:12;10.27;;;4.27;;
75261;SDS011;63859;51.064;4.580;2023-04-04T05:41:37;11.60;;;4.47;;
75261;SDS011;63859;51.064;4.580;2023-04-04T05:44:03;8.37;;;4.30;;
75261;SDS011;63859;51.064;4.580;2023-04-04T05:46:29;10.00;;;4.47;;
75261;SDS011;63859;51.064;4.580;2023-04-04T05:48:54;6.27;;;3.97;;
75261;SDS011;63859;51.064;4.580;2023-04-04T05:51:20;12.03;;;4.80;;
75261;SDS011;63859;51.064;4.580;2023-04-04T05:53:46;6.90;;;4.17;;
75261;SDS011;63859;51.064;4.580;2023-04-04T05:56:11;11.43;;;4.60;;
75261;SDS011;63859;51.064;4.580;2023-04-04T05:58:37;14.23;;;4.70;;
75261;SDS011;63859;51.064;4.580;2023-04-04T06:01:06;11.13;;;4.50;;
75261;SDS011;63859;51.064;4.580;2023-04-04T06:03:35;8.63;;;4.20;;
75261;SDS011;63859;51.064;4.580;2023-04-04T06:06:01;9.17;;;4.80;;
75261;SDS011;63859;51.064;4.580;2023-04-04T06:08:28;8.63;;;4.07;;
75261;SDS011;63859;51.064;4.580;2023-04-04T06:10:55;15.63;;;4.30;;
75261;SDS011;63859;51.064;4.580;2023-04-04T06:13:20;10.43;;;4.37;;
75261;SDS011;63859;51.064;4.580;2023-04-04T06:15:46;11.47;;;4.23;;
75261;SDS011;63859;51.064;4.580;2023-04-04T06:18:11;12.27;;;4.60;;
75261;SDS011;63859;51.064;4.580;2023-04-04T06:20:37;7.13;;;4.63;;
75261;SDS011;63859;51.064;4.580;2023-04-04T06:23:03;9.77;;;4.50;;
75261;SDS011;63859;51.064;4.580;2023-04-04T06:25:29;9.20;;;4.77;;
75261;SDS011;63859;51.064;4.580;2023-04-04T06:27:55;13.43;;;5.00;;
75261;SDS011;63859;51.064;4.580;2023-04-04T06:30:21;11.80;;;4.97;;
75261;SDS011;63859;51.064;4.580;2023-04-04T06:32:46;10.47;;;4.80;;
75261;SDS011;63859;51.064;4.580;2023-04-04T06:35:12;14.80;;;5.17;;
75261;SDS011;63859;51.064;4.580;2023-04-04T06:37:37;27.80;;;7.37;;
75261;SDS011;63859;51.064;4.580;2023-04-04T06:40:03;12.80;;;5.40;;
75261;SDS011;63859;51.064;4.580;2023-04-04T06:42:30;12.53;;;5.23;;
75261;SDS011;63859;51.064;4.580;2023-04-04T06:44:55;12.00;;;5.00;;
75261;SDS011;63859;51.064;4.580;2023-04-04T06:47:21;9.00;;;4.90;;
75261;SDS011;63859;51.064;4.580;2023-04-04T06:49:46;11.07;;;4.70;;
75261;SDS011;63859;51.064;4.580;2023-04-04T06:52:12;8.30;;;4.60;;
75261;SDS011;63859;51.064;4.580;2023-04-04T06:54:38;9.37;;;4.80;;
75261;SDS011;63859;51.064;4.580;2023-04-04T06:57:04;8.90;;;4.43;;
75261;SDS011;63859;51.064;4.580;2023-04-04T06:59:29;13.00;;;5.70;;
75261;SDS011;63859;51.064;4.580;2023-04-04T07:01:56;7.83;;;4.50;;
75261;SDS011;63859;51.064;4.580;2023-04-04T07:04:21;13.27;;;4.90;;
75261;SDS011;63859;51.064;4.580;2023-04-04T07:06:47;13.07;;;4.77;;
75261;SDS011;63859;51.064;4.580;2023-04-04T07:09:12;9.20;;;4.37;;
75261;SDS011;63859;51.064;4.580;2023-04-04T07:11:38;9.00;;;4.90;;
75261;SDS011;63859;51.064;4.580;2023-04-04T07:14:04;10.93;;;5.00;;
75261;SDS011;63859;51.064;4.580;2023-04-04T07:16:30;21.07;;;4.93;;
75261;SDS011;63859;51.064;4.580;2023-04-04T07:18:55;11.87;;;4.93;;
75261;SDS011;63859;51.064;4.580;2023-04-04T07:21:21;11.57;;;4.83;;
75261;SDS011;63859;51.064;4.580;2023-04-04T07:23:47;14.10;;;5.00;;
75261;SDS011;63859;51.064;4.580;2023-04-04T07:26:14;13.67;;;5.37;;
75261;SDS011;63859;51.064;4.580;2023-04-04T07:28:40;10.80;;;4.77;;
75261;SDS011;63859;51.064;4.580;2023-04-04T07:31:06;10.03;;;4.90;;
75261;SDS011;63859;51.064;4.580;2023-04-04T07:33:31;10.40;;;4.80;;
75261;SDS011;63859;51.064;4.580;2023-04-04T07:35:57;8.27;;;4.63;;
75261;SDS011;63859;51.064;4.580;2023-04-04T07:38:24;9.57;;;4.50;;
75261;SDS011;63859;51.064;4.580;2023-04-04T07:40:50;9.87;;;4.17;;
75261;SDS011;63859;51.064;4.580;2023-04-04T07:43:16;15.83;;;4.73;;
75261;SDS011;63859;51.064;4.580;2023-04-04T07:45:41;10.80;;;5.00;;
75261;SDS011;63859;51.064;4.580;2023-04-04T07:48:07;22.77;;;5.87;;
75261;SDS011;63859;51.064;4.580;2023-04-04T07:50:33;17.73;;;5.10;;
75261;SDS011;63859;51.064;4.580;2023-04-04T07:52:58;9.30;;;4.23;;
75261;SDS011;63859;51.064;4.580;2023-04-04T07:55:24;11.63;;;3.47;;
75261;SDS011;63859;51.064;4.580;2023-04-04T07:57:50;9.30;;;4.40;;
75261;SDS011;63859;51.064;4.580;2023-04-04T08:00:16;53.10;;;12.37;;
75261;SDS011;63859;51.064;4.580;2023-04-04T08:02:45;9.27;;;3.53;;
75261;SDS011;63859;51.064;4.580;2023-04-04T08:05:16;6.70;;;3.10;;
75261;SDS011;63859;51.064;4.580;2023-04-04T08:07:42;8.53;;;3.30;;
75261;SDS011;63859;51.064;4.580;2023-04-04T08:10:07;5.43;;;3.30;;
75261;SDS011;63859;51.064;4.580;2023-04-04T08:12:33;5.67;;;3.00;;
75261;SDS011;63859;51.064;4.580;2023-04-04T08:14:59;10.50;;;3.20;;
75261;SDS011;63859;51.064;4.580;2023-04-04T08:17:26;11.17;;;3.13;;
75261;SDS011;63859;51.064;4.580;2023-04-04T08:19:52;10.30;;;3.10;;
75261;SDS011;63859;51.064;4.580;2023-04-04T08:22:18;9.33;;;3.37;;
75261;SDS011;63859;51.064;4.580;2023-04-04T08:24:43;7.10;;;3.20;;
75261;SDS011;63859;51.064;4.580;2023-04-04T08:27:10;6.77;;;3.10;;
75261;SDS011;63859;51.064;4.580;2023-04-04T08:29:36;12.57;;;3.30;;
75261;SDS011;63859;51.064;4.580;2023-04-04T08:32:02;6.80;;;2.63;;
75261;SDS011;63859;51.064;4.580;2023-04-04T08:34:29;24.07;;;7.67;;
75261;SDS011;63859;51.064;4.580;2023-04-04T08:36:54;9.47;;;3.47;;
75261;SDS011;63859;51.064;4.580;2023-04-04T08:39:20;5.23;;;2.83;;
75261;SDS011;63859;51.064;4.580;2023-04-04T08:41:46;7.03;;;2.67;;
75261;SDS011;63859;51.064;4.580;2023-04-04T08:44:15;8.37;;;2.67;;
75261;SDS011;63859;51.064;4.580;2023-04-04T08:46:43;10.60;;;3.17;;
75261;SDS011;63859;51.064;4.580;2023-04-04T08:49:10;7.43;;;3.07;;
75261;SDS011;63859;51.064;4.580;2023-04-04T08:51:38;9.67;;;2.90;;
75261;SDS011;63859;51.064;4.580;2023-04-04T08:54:06;24.10;;;4.03;;
75261;SDS011;63859;51.064;4.580;2023-04-04T08:56:33;6.70;;;3.00;;
75261;SDS011;63859;51.064;4.580;2023-04-04T08:58:59;6.47;;;3.00;;
75261;SDS011;63859;51.064;4.580;2023-04-04T09:01:26;9.43;;;2.93;;
75261;SDS011;63859;51.064;4.580;2023-04-04T09:03:53;4.57;;;2.70;;
75261;SDS011;63859;51.064;4.580;2023-04-04T09:06:20;6.27;;;2.60;;
75261;SDS011;63859;51.064;4.580;2023-04-04T09:08:47;6.53;;;2.50;;
75261;SDS011;63859;51.064;4.580;2023-04-04T09:11:15;4.63;;;3.00;;
75261;SDS011;63859;51.064;4.580;2023-04-04T09:13:43;9.00;;;3.30;;
75261;SDS011;63859;51.064;4.580;2023-04-04T09:16:10;8.20;;;2.90;;
75261;SDS011;63859;51.064;4.580;2023-04-04T09:18:36;8.77;;;3.13;;
75261;SDS011;63859;51.064;4.580;2023-04-04T09:21:07;6.63;;;2.80;;
75261;SDS011;63859;51.064;4.580;2023-04-04T09:23:34;6.23;;;2.57;;
75261;SDS011;63859;51.064;4.580;2023-04-04T09:25:59;6.07;;;3.10;;
75261;SDS011;63859;51.064;4.580;2023-04-04T09:28:25;9.13;;;3.10;;
75261;SDS011;63859;51.064;4.580;2023-04-04T09:30:52;6.40;;;3.23;;
75261;SDS011;63859;51.064;4.580;2023-04-04T09:33:18;6.50;;;3.13;;
75261;SDS011;63859;51.064;4.580;2023-04-04T09:35:58;7.53;;;2.73;;
75261;SDS011;63859;51.064;4.580;2023-04-04T09:38:29;4.90;;;2.50;;
75261;SDS011;63859;51.064;4.580;2023-04-04T09:40:55;19.53;;;3.70;;
75261;SDS011;63859;51.064;4.580;2023-04-04T09:43:22;7.17;;;2.53;;
75261;SDS011;63859;51.064;4.580;2023-04-04T09:45:49;9.37;;;2.70;;
75261;SDS011;63859;51.064;4.580;2023-04-04T09:51:18;4.97;;;2.70;;
75261;SDS011;63859;51.064;4.580;2023-04-04T09:53:46;5.67;;;2.67;;
75261;SDS011;63859;51.064;4.580;2023-04-04T09:56:12;4.93;;;2.43;;
75261;SDS011;63859;51.064;4.580;2023-04-04T09:58:38;5.97;;;3.00;;
75261;SDS011;63859;51.064;4.580;2023-04-04T10:01:08;12.60;;;3.63;;
75261;SDS011;63859;51.064;4.580;2023-04-04T10:03:35;8.20;;;2.80;;
75261;SDS011;63859;51.064;4.580;2023-04-04T10:06:02;8.83;;;2.77;;
75261;SDS011;63859;51.064;4.580;2023-04-04T10:08:29;6.00;;;2.70;;
75261;SDS011;63859;51.064;4.580;2023-04-04T10:10:59;5.53;;;2.50;;
75261;SDS011;63859;51.064;4.580;2023-04-04T10:13:26;8.67;;;2.90;;
75261;SDS011;63859;51.064;4.580;2023-04-04T10:15:59;5.33;;;2.43;;
75261;SDS011;63859;51.064;4.580;2023-04-04T10:18:28;6.57;;;2.60;;
75261;SDS011;63859;51.064;4.580;2023-04-04T10:20:55;6.53;;;3.07;;
75261;SDS011;63859;51.064;4.580;2023-04-04T10:23:24;5.37;;;2.73;;
75261;SDS011;63859;51.064;4.580;2023-04-04T10:25:53;5.50;;;2.80;;
75261;SDS011;63859;51.064;4.580;2023-04-04T10:28:19;4.83;;;2.40;;
75261;SDS011;63859;51.064;4.580;2023-04-04T10:30:48;8.50;;;3.03;;
75261;SDS011;63859;51.064;4.580;2023-04-04T10:33:26;5.07;;;2.63;;
75261;SDS011;63859;51.064;4.580;2023-04-04T10:36:03;5.87;;;2.77;;
75261;SDS011;63859;51.064;4.580;2023-04-04T10:38:35;7.87;;;2.90;;
75261;SDS011;63859;51.064;4.580;2023-04-04T10:41:07;5.60;;;2.77;;
75261;SDS011;63859;51.064;4.580;2023-04-04T10:43:34;6.57;;;2.70;;
75261;SDS011;63859;51.064;4.580;2023-04-04T10:46:10;4.07;;;2.33;;
75261;SDS011;63859;51.064;4.580;2023-04-04T10:48:38;20.17;;;3.07;;
75261;SDS011;63859;51.064;4.580;2023-04-04T10:51:05;4.70;;;2.87;;
75261;SDS011;63859;51.064;4.580;2023-04-04T10:53:32;4.40;;;2.90;;
75261;SDS011;63859;51.064;4.580;2023-04-04T10:56:00;6.20;;;2.50;;
75261;SDS011;63859;51.064;4.580;2023-04-04T10:58:27;5.00;;;2.73;;
75261;SDS011;63859;51.064;4.580;2023-04-04T11:00:54;3.57;;;2.57;;
75261;SDS011;63859;51.064;4.580;2023-04-04T11:03:20;5.27;;;2.60;;
75261;SDS011;63859;51.064;4.580;2023-04-04T11:05:49;7.33;;;2.67;;
75261;SDS011;63859;51.064;4.580;2023-04-04T11:08:24;7.97;;;2.93;;
75261;SDS011;63859;51.064;4.580;2023-04-04T11:10:52;5.87;;;2.70;;
75261;SDS011;63859;51.064;4.580;2023-04-04T11:13:26;4.47;;;2.70;;
75261;SDS011;63859;51.064;4.580;2023-04-04T11:16:02;5.03;;;2.83;;
75261;SDS011;63859;51.064;4.580;2023-04-04T11:21:06;5.57;;;2.53;;
75261;SDS011;63859;51.064;4.580;2023-04-04T11:26:40;5.43;;;2.73;;
75261;SDS011;63859;51.064;4.580;2023-04-04T11:29:06;5.80;;;2.80;;
75261;SDS011;63859;51.064;4.580;2023-04-04T11:31:33;4.80;;;2.63;;
75261;SDS011;63859;51.064;4.580;2023-04-04T11:34:13;8.87;;;3.10;;
75261;SDS011;63859;51.064;4.580;2023-04-04T11:36:53;6.97;;;3.03;;
75261;SDS011;63859;51.064;4.580;2023-04-04T11:42:10;7.23;;;2.77;;
75261;SDS011;63859;51.064;4.580;2023-04-04T11:47:19;4.83;;;2.87;;
75261;SDS011;63859;51.064;4.580;2023-04-04T11:49:47;5.97;;;2.90;;
75261;SDS011;63859;51.064;4.580;2023-04-04T11:52:15;8.30;;;3.03;;
75261;SDS011;63859;51.064;4.580;2023-04-04T11:54:43;7.07;;;3.13;;
75261;SDS011;63859;51.064;4.580;2023-04-04T11:57:11;8.05;;;3.30;;
75261;SDS011;63859;51.064;4.580;2023-04-04T11:59:45;6.45;;;3.08;;
75261;SDS011;63859;51.064;4.580;2023-04-04T12:02:14;6.28;;;2.95;;
75261;SDS011;63859;51.064;4.580;2023-04-04T12:04:44;8.75;;;3.20;;
75261;SDS011;63859;51.064;4.580;2023-04-04T12:07:11;7.03;;;2.90;;
75261;SDS011;63859;51.064;4.580;2023-04-04T12:09:39;6.38;;;3.38;;
75261;SDS011;63859;51.064;4.580;2023-04-04T12:12:06;7.45;;;3.00;;
75261;SDS011;63859;51.064;4.580;2023-04-04T12:14:36;8.35;;;3.10;;
75261;SDS011;63859;51.064;4.580;2023-04-04T12:17:03;6.60;;;2.97;;
75261;SDS011;63859;51.064;4.580;2023-04-04T12:19:30;5.53;;;3.30;;
75261;SDS011;63859;51.064;4.580;2023-04-04T12:21:55;7.55;;;3.25;;
75261;SDS011;63859;51.064;4.580;2023-04-04T12:24:22;6.30;;;2.92;;
75261;SDS011;63859;51.064;4.580;2023-04-04T12:26:48;5.25;;;2.97;;
75261;SDS011;63859;51.064;4.580;2023-04-04T12:29:16;7.53;;;3.08;;
75261;SDS011;63859;51.064;4.580;2023-04-04T12:31:44;4.13;;;2.92;;
75261;SDS011;63859;51.064;4.580;2023-04-04T12:34:21;6.03;;;3.63;;
75261;SDS011;63859;51.064;4.580;2023-04-04T12:36:54;7.28;;;3.00;;
75261;SDS011;63859;51.064;4.580;2023-04-04T12:39:21;7.90;;;3.10;;
75261;SDS011;63859;51.064;4.580;2023-04-04T12:41:53;6.35;;;3.05;;
75261;SDS011;63859;51.064;4.580;2023-04-04T12:44:30;7.15;;;3.47;;
75261;SDS011;63859;51.064;4.580;2023-04-04T12:46:57;6.35;;;2.80;;
75261;SDS011;63859;51.064;4.580;2023-04-04T12:49:30;9.70;;;3.50;;
75261;SDS011;63859;51.064;4.580;2023-04-04T12:51:58;5.95;;;2.80;;
75261;SDS011;63859;51.064;4.580;2023-04-04T12:54:32;8.15;;;2.97;;
75261;SDS011;63859;51.064;4.580;2023-04-04T12:57:03;5.35;;;3.03;;
75261;SDS011;63859;51.064;4.580;2023-04-04T12:59:30;5.82;;;2.90;;
75261;SDS011;63859;51.064;4.580;2023-04-04T13:01:57;24.30;;;4.38;;
75261;SDS011;63859;51.064;4.580;2023-04-04T13:04:26;5.63;;;2.55;;
75261;SDS011;63859;51.064;4.580;2023-04-04T13:06:51;3.95;;;2.50;;
75261;SDS011;63859;51.064;4.580;2023-04-04T13:09:21;5.72;;;2.95;;
75261;SDS011;63859;51.064;4.580;2023-04-04T13:12:01;4.43;;;2.35;;
75261;SDS011;63859;51.064;4.580;2023-04-04T13:17:43;5.70;;;2.70;;
75261;SDS011;63859;51.064;4.580;2023-04-04T13:20:10;5.82;;;2.70;;
75261;SDS011;63859;51.064;4.580;2023-04-04T13:22:37;5.93;;;2.70;;
75261;SDS011;63859;51.064;4.580;2023-04-04T13:25:04;7.07;;;2.70;;
75261;SDS011;63859;51.064;4.580;2023-04-04T13:27:32;6.43;;;2.50;;
75261;SDS011;63859;51.064;4.580;2023-04-04T13:29:58;4.57;;;2.42;;
75261;SDS011;63859;51.064;4.580;2023-04-04T13:32:23;5.95;;;2.97;;
75261;SDS011;63859;51.064;4.580;2023-04-04T13:34:49;5.95;;;3.00;;
75261;SDS011;63859;51.064;4.580;2023-04-04T13:37:15;3.55;;;2.75;;
75261;SDS011;63859;51.064;4.580;2023-04-04T13:39:40;5.15;;;2.67;;
75261;SDS011;63859;51.064;4.580;2023-04-04T13:42:06;6.68;;;2.80;;
75261;SDS011;63859;51.064;4.580;2023-04-04T13:44:32;6.40;;;2.67;;
75261;SDS011;63859;51.064;4.580;2023-04-04T13:46:58;4.07;;;2.88;;
75261;SDS011;63859;51.064;4.580;2023-04-04T13:49:23;10.75;;;3.28;;
75261;SDS011;63859;51.064;4.580;2023-04-04T13:51:49;6.40;;;2.70;;
75261;SDS011;63859;51.064;4.580;2023-04-04T13:54:15;5.18;;;2.63;;
75261;SDS011;63859;51.064;4.580;2023-04-04T13:56:40;5.85;;;2.70;;
75261;SDS011;63859;51.064;4.580;2023-04-04T13:59:06;3.70;;;2.67;;
75261;SDS011;63859;51.064;4.580;2023-04-04T14:01:32;5.53;;;2.70;;
75261;SDS011;63859;51.064;4.580;2023-04-04T14:03:58;10.57;;;3.00;;
75261;SDS011;63859;51.064;4.580;2023-04-04T14:06:24;4.22;;;2.70;;
75261;SDS011;63859;51.064;4.580;2023-04-04T14:08:50;6.25;;;2.97;;
75261;SDS011;63859;51.064;4.580;2023-04-04T14:11:16;5.00;;;2.97;;
75261;SDS011;63859;51.064;4.580;2023-04-04T14:13:42;3.83;;;2.80;;
75261;SDS011;63859;51.064;4.580;2023-04-04T14:16:08;5.20;;;3.05;;
75261;SDS011;63859;51.064;4.580;2023-04-04T14:18:33;7.22;;;3.20;;
75261;SDS011;63859;51.064;4.580;2023-04-04T14:21:00;15.70;;;4.05;;
75261;SDS011;63859;51.064;4.580;2023-04-04T14:23:26;6.82;;;3.20;;
75261;SDS011;63859;51.064;4.580;2023-04-04T14:25:54;7.60;;;2.90;;
75261;SDS011;63859;51.064;4.580;2023-04-04T14:28:20;5.53;;;2.70;;
75261;SDS011;63859;51.064;4.580;2023-04-04T14:30:48;9.32;;;2.70;;
75261;SDS011;63859;51.064;4.580;2023-04-04T14:33:14;5.55;;;2.72;;
75261;SDS011;63859;51.064;4.580;2023-04-04T14:35:39;5.70;;;2.58;;
75261;SDS011;63859;51.064;4.580;2023-04-04T14:38:05;8.50;;;2.80;;
75261;SDS011;63859;51.064;4.580;2023-04-04T14:40:31;5.03;;;2.63;;
75261;SDS011;63859;51.064;4.580;2023-04-04T14:42:56;8.45;;;3.03;;
75261;SDS011;63859;51.064;4.580;2023-04-04T14:45:22;4.32;;;2.50;;
75261;SDS011;63859;51.064;4.580;2023-04-04T14:47:47;4.07;;;2.50;;
75261;SDS011;63859;51.064;4.580;2023-04-04T14:50:13;4.72;;;2.47;;
75261;SDS011;63859;51.064;4.580;2023-04-04T14:52:39;6.55;;;2.85;;
75261;SDS011;63859;51.064;4.580;2023-04-04T14:55:05;5.65;;;2.60;;
75261;SDS011;63859;51.064;4.580;2023-04-04T14:57:31;4.20;;;2.38;;
75261;SDS011;63859;51.064;4.580;2023-04-04T14:59:57;4.60;;;2.35;;
75261;SDS011;63859;51.064;4.580;2023-04-04T15:02:23;6.18;;;2.90;;
75261;SDS011;63859;51.064;4.580;2023-04-04T15:04:48;16.20;;;3.30;;